Sinajana, Guam
Current Conditions -  °F | °C
As of 1:54 AM on Friday 19 Dec 2014 (Local Time) from PGUM Reporting Station
Broken Clouds Broken Clouds  
Wind Chill: 78°   Ceiling: 8500
Heat Index: 81°   Visibility: 10mi
Dew Point: 74°   Wind: 16mph
Humidity: 87%   Direction: 60°ENE
Pressure: 29.94"   Gusts: 21mph
Location:  13.46°N, 144.75°E
Report Text: PGUM 181554Z 06014G18KT 10SM BKN085 26/23 A2994 RMK AO2 SLP131 T02560233
Loading
Personal Weather Stations






























Interactive Weather Map New forecast layout! Learn more

10-Day Weather Forecast

Advertisements
Track Severe Weather on mobile